sensor_id;sensor_type;location;lat;lon;timestamp;pressure;altitude;pressure_sealevel;temperature;humidity
43420;BME280;29017;51.514;-0.178;2022-08-19T00:01:49;100877.66;;;22.23;81.46
43420;BME280;29017;51.514;-0.178;2022-08-19T00:04:22;100877.78;;;22.28;82.11
43420;BME280;29017;51.514;-0.178;2022-08-19T00:06:50;100890.16;;;22.29;81.64
43420;BME280;29017;51.514;-0.178;2022-08-19T00:09:19;100884.31;;;22.32;81.74
43420;BME280;29017;51.514;-0.178;2022-08-19T00:11:46;100888.66;;;22.33;81.93
43420;BME280;29017;51.514;-0.178;2022-08-19T00:14:15;100893.19;;;22.33;82.05
43420;BME280;29017;51.514;-0.178;2022-08-19T00:16:44;100885.63;;;22.30;82.02
43420;BME280;29017;51.514;-0.178;2022-08-19T00:19:12;100884.78;;;22.29;82.73
43420;BME280;29017;51.514;-0.178;2022-08-19T00:21:39;100877.78;;;22.28;82.55
43420;BME280;29017;51.514;-0.178;2022-08-19T00:24:08;100876.97;;;22.28;82.72
43420;BME280;29017;51.514;-0.178;2022-08-19T00:26:36;100885.00;;;22.28;82.37
43420;BME280;29017;51.514;-0.178;2022-08-19T00:29:04;100876.00;;;22.22;83.02
43420;BME280;29017;51.514;-0.178;2022-08-19T00:31:32;100876.47;;;22.19;82.88
43420;BME280;29017;51.514;-0.178;2022-08-19T00:33:59;100865.63;;;22.14;83.19
43420;BME280;29017;51.514;-0.178;2022-08-19T00:36:26;100867.47;;;22.13;83.41
43420;BME280;29017;51.514;-0.178;2022-08-19T00:38:52;100870.16;;;22.13;83.70
43420;BME280;29017;51.514;-0.178;2022-08-19T00:41:21;100859.88;;;22.10;83.23
43420;BME280;29017;51.514;-0.178;2022-08-19T00:44:21;100858.03;;;22.11;83.91
43420;BME280;29017;51.514;-0.178;2022-08-19T00:46:54;100861.75;;;22.10;83.70
43420;BME280;29017;51.514;-0.178;2022-08-19T00:51:53;100866.31;;;22.09;83.55
43420;BME280;29017;51.514;-0.178;2022-08-19T00:54:21;100867.69;;;22.12;84.11
43420;BME280;29017;51.514;-0.178;2022-08-19T00:56:57;100860.25;;;22.14;83.97
43420;BME280;29017;51.514;-0.178;2022-08-19T00:59:27;100855.13;;;22.12;84.10
43420;BME280;29017;51.514;-0.178;2022-08-19T01:02:16;100855.13;;;22.12;84.20
43420;BME280;29017;51.514;-0.178;2022-08-19T01:04:43;100854.09;;;22.13;84.58
43420;BME280;29017;51.514;-0.178;2022-08-19T01:07:10;100855.72;;;22.14;84.56
43420;BME280;29017;51.514;-0.178;2022-08-19T01:09:42;100853.63;;;22.16;83.95
43420;BME280;29017;51.514;-0.178;2022-08-19T01:12:09;100852.78;;;22.16;84.36
43420;BME280;29017;51.514;-0.178;2022-08-19T01:14:39;100849.06;;;22.17;84.64
43420;BME280;29017;51.514;-0.178;2022-08-19T01:17:09;100857.72;;;22.19;84.75
43420;BME280;29017;51.514;-0.178;2022-08-19T01:19:41;100844.53;;;22.17;84.14
43420;BME280;29017;51.514;-0.178;2022-08-19T01:22:49;100845.56;;;22.16;84.31
43420;BME280;29017;51.514;-0.178;2022-08-19T01:25:20;100851.16;;;22.15;84.81
43420;BME280;29017;51.514;-0.178;2022-08-19T01:28:00;100844.53;;;22.17;85.22
43420;BME280;29017;51.514;-0.178;2022-08-19T01:30:37;100853.97;;;22.20;85.33
43420;BME280;29017;51.514;-0.178;2022-08-19T01:33:10;100857.25;;;22.22;84.74
43420;BME280;29017;51.514;-0.178;2022-08-19T01:35:37;100855.59;;;22.21;84.57
43420;BME280;29017;51.514;-0.178;2022-08-19T01:38:07;100852.94;;;22.21;84.55
43420;BME280;29017;51.514;-0.178;2022-08-19T01:40:39;100852.09;;;22.21;84.99
43420;BME280;29017;51.514;-0.178;2022-08-19T01:43:06;100847.81;;;22.20;85.17
43420;BME280;29017;51.514;-0.178;2022-08-19T01:45:36;100850.50;;;22.20;85.58
43420;BME280;29017;51.514;-0.178;2022-08-19T01:48:07;100844.06;;;22.21;85.71
43420;BME280;29017;51.514;-0.178;2022-08-19T01:50:35;100845.91;;;22.20;85.48
43420;BME280;29017;51.514;-0.178;2022-08-19T01:53:05;100845.13;;;22.20;85.51
43420;BME280;29017;51.514;-0.178;2022-08-19T01:55:36;100843.50;;;22.18;85.90
43420;BME280;29017;51.514;-0.178;2022-08-19T01:58:17;100847.22;;;22.17;85.67
43420;BME280;29017;51.514;-0.178;2022-08-19T02:00:53;100849.06;;;22.17;86.01
43420;BME280;29017;51.514;-0.178;2022-08-19T02:03:21;100851.53;;;22.18;86.82
43420;BME280;29017;51.514;-0.178;2022-08-19T02:05:56;100852.34;;;22.19;86.41
43420;BME280;29017;51.514;-0.178;2022-08-19T02:08:29;100856.91;;;22.18;85.90
43420;BME280;29017;51.514;-0.178;2022-08-19T02:11:00;100851.75;;;22.17;85.78
43420;BME280;29017;51.514;-0.178;2022-08-19T02:13:27;100844.19;;;22.14;86.50
43420;BME280;29017;51.514;-0.178;2022-08-19T02:15:54;100855.72;;;22.14;86.13
43420;BME280;29017;51.514;-0.178;2022-08-19T02:18:30;100855.94;;;22.13;86.18
43420;BME280;29017;51.514;-0.178;2022-08-19T02:21:02;100853.25;;;22.13;86.70
43420;BME280;29017;51.514;-0.178;2022-08-19T02:23:31;100857.94;;;22.17;86.85
43420;BME280;29017;51.514;-0.178;2022-08-19T02:25:58;100850.72;;;22.18;87.09
43420;BME280;29017;51.514;-0.178;2022-08-19T02:28:28;100848.25;;;22.16;86.81
43420;BME280;29017;51.514;-0.178;2022-08-19T02:31:00;100849.53;;;22.14;86.70
43420;BME280;29017;51.514;-0.178;2022-08-19T02:33:29;100852.78;;;22.16;86.25
43420;BME280;29017;51.514;-0.178;2022-08-19T02:35:56;100848.47;;;22.15;86.58
43420;BME280;29017;51.514;-0.178;2022-08-19T02:38:29;100849.06;;;22.17;86.86
43420;BME280;29017;51.514;-0.178;2022-08-19T02:41:02;100850.94;;;22.16;87.01
43420;BME280;29017;51.514;-0.178;2022-08-19T02:43:31;100846.84;;;22.14;86.73
43420;BME280;29017;51.514;-0.178;2022-08-19T02:46:02;100855.94;;;22.13;87.07
43420;BME280;29017;51.514;-0.178;2022-08-19T02:48:31;100860.47;;;22.12;86.81
43420;BME280;29017;51.514;-0.178;2022-08-19T02:51:01;100860.69;;;22.11;87.16
43420;BME280;29017;51.514;-0.178;2022-08-19T02:53:31;100861.31;;;22.13;86.81
43420;BME280;29017;51.514;-0.178;2022-08-19T02:55:59;100858.03;;;22.11;87.00
43420;BME280;29017;51.514;-0.178;2022-08-19T02:58:30;100865.63;;;22.14;88.03
43420;BME280;29017;51.514;-0.178;2022-08-19T03:01:01;100851.84;;;22.10;88.07
43420;BME280;29017;51.514;-0.178;2022-08-19T03:06:06;100858.28;;;22.09;87.92
43420;BME280;29017;51.514;-0.178;2022-08-19T03:08:36;100862.22;;;22.07;87.62
43420;BME280;29017;51.514;-0.178;2022-08-19T03:11:04;100861.59;;;22.05;88.41
43420;BME280;29017;51.514;-0.178;2022-08-19T03:13:31;100850.88;;;22.05;88.31
43420;BME280;29017;51.514;-0.178;2022-08-19T03:16:04;100857.88;;;22.06;88.74
43420;BME280;29017;51.514;-0.178;2022-08-19T03:18:34;100860.34;;;22.07;88.98
43420;BME280;29017;51.514;-0.178;2022-08-19T03:21:04;100861.16;;;22.08;88.67
43420;BME280;29017;51.514;-0.178;2022-08-19T03:23:32;100859.53;;;22.07;88.67
43420;BME280;29017;51.514;-0.178;2022-08-19T03:26:04;100863.25;;;22.06;88.64
43420;BME280;29017;51.514;-0.178;2022-08-19T03:28:43;100863.25;;;22.06;88.53
43420;BME280;29017;51.514;-0.178;2022-08-19T03:31:21;100858.72;;;22.06;88.40
43420;BME280;29017;51.514;-0.178;2022-08-19T03:34:18;100861.16;;;22.08;88.60
43420;BME280;29017;51.514;-0.178;2022-08-19T03:36:46;100853.94;;;22.08;88.59
43420;BME280;29017;51.514;-0.178;2022-08-19T03:39:14;100862.34;;;22.12;88.17
43420;BME280;29017;51.514;-0.178;2022-08-19T03:41:44;100856.75;;;22.13;87.93
43420;BME280;29017;51.514;-0.178;2022-08-19T03:44:19;100866.66;;;22.13;87.62
43420;BME280;29017;51.514;-0.178;2022-08-19T03:46:50;100860.69;;;22.11;87.74
43420;BME280;29017;51.514;-0.178;2022-08-19T03:49:18;100867.69;;;22.12;87.64
43420;BME280;29017;51.514;-0.178;2022-08-19T03:51:47;100866.31;;;22.09;87.33
43420;BME280;29017;51.514;-0.178;2022-08-19T03:54:16;100873.28;;;22.10;88.21
43420;BME280;29017;51.514;-0.178;2022-08-19T03:56:44;100872.47;;;22.10;88.17
43420;BME280;29017;51.514;-0.178;2022-08-19T03:59:17;100878.06;;;22.08;87.95
43420;BME280;29017;51.514;-0.178;2022-08-19T04:01:44;100870.47;;;22.05;88.71
43420;BME280;29017;51.514;-0.178;2022-08-19T04:04:12;100861.03;;;22.03;88.99
43420;BME280;29017;51.514;-0.178;2022-08-19T04:06:39;100866.81;;;22.00;89.37
43420;BME280;29017;51.514;-0.178;2022-08-19T04:09:09;100868.13;;;21.97;90.43
43420;BME280;29017;51.514;-0.178;2022-08-19T04:11:41;100868.94;;;21.98;91.02
43420;BME280;29017;51.514;-0.178;2022-08-19T04:14:12;100862.97;;;21.96;91.66
43420;BME280;29017;51.514;-0.178;2022-08-19T04:16:41;100857.63;;;21.96;92.29
43420;BME280;29017;51.514;-0.178;2022-08-19T04:19:11;100867.75;;;21.94;92.47
43420;BME280;29017;51.514;-0.178;2022-08-19T04:21:38;100872.69;;;21.90;93.25
43420;BME280;29017;51.514;-0.178;2022-08-19T04:24:06;100879.34;;;21.88;93.36
43420;BME280;29017;51.514;-0.178;2022-08-19T04:26:35;100879.34;;;21.88;93.47
43420;BME280;29017;51.514;-0.178;2022-08-19T04:29:12;100876.88;;;21.86;93.85
43420;BME280;29017;51.514;-0.178;2022-08-19T04:31:40;100876.88;;;21.86;94.60
43420;BME280;29017;51.514;-0.178;2022-08-19T04:34:11;100881.19;;;21.87;94.26
43420;BME280;29017;51.514;-0.178;2022-08-19T04:36:40;100881.19;;;21.87;93.93
43420;BME280;29017;51.514;-0.178;2022-08-19T04:39:14;100881.63;;;21.84;94.42
43420;BME280;29017;51.514;-0.178;2022-08-19T04:41:41;100886.19;;;21.84;94.68
43420;BME280;29017;51.514;-0.178;2022-08-19T04:44:27;100879.19;;;21.83;95.06
43420;BME280;29017;51.514;-0.178;2022-08-19T04:46:59;100889.09;;;21.82;94.92
43420;BME280;29017;51.514;-0.178;2022-08-19T04:49:27;100888.50;;;21.80;94.71
43420;BME280;29017;51.514;-0.178;2022-08-19T04:51:55;100888.50;;;21.80;95.67
43420;BME280;29017;51.514;-0.178;2022-08-19T04:54:24;100892.00;;;21.81;95.22
43420;BME280;29017;51.514;-0.178;2022-08-19T04:57:06;100891.16;;;21.80;95.51
43420;BME280;29017;51.514;-0.178;2022-08-19T04:59:36;100892.47;;;21.77;94.94
43420;BME280;29017;51.514;-0.178;2022-08-19T05:02:05;100894.75;;;21.74;95.12
43420;BME280;29017;51.514;-0.178;2022-08-19T05:04:33;100894.75;;;21.74;94.93
43420;BME280;29017;51.514;-0.178;2022-08-19T05:07:01;100900.09;;;21.74;95.40
43420;BME280;29017;51.514;-0.178;2022-08-19T05:09:29;100907.78;;;21.70;94.77
43420;BME280;29017;51.514;-0.178;2022-08-19T05:12:17;100908.00;;;21.69;95.31
43420;BME280;29017;51.514;-0.178;2022-08-19T05:14:45;100917.66;;;21.70;95.28
43420;BME280;29017;51.514;-0.178;2022-08-19T05:17:14;100909.63;;;21.70;95.03
43420;BME280;29017;51.514;-0.178;2022-08-19T05:20:01;100915.00;;;21.70;94.55
43420;BME280;29017;51.514;-0.178;2022-08-19T05:22:47;100915.00;;;21.70;94.39
43420;BME280;29017;51.514;-0.178;2022-08-19T05:25:19;100919.31;;;21.71;95.03
43420;BME280;29017;51.514;-0.178;2022-08-19T05:27:46;100911.88;;;21.73;94.51
43420;BME280;29017;51.514;-0.178;2022-08-19T05:30:15;100921.78;;;21.72;94.98
43420;BME280;29017;51.514;-0.178;2022-08-19T05:32:42;100915.59;;;21.72;94.88
43420;BME280;29017;51.514;-0.178;2022-08-19T05:35:10;100912.91;;;21.72;94.50
43420;BME280;29017;51.514;-0.178;2022-08-19T05:37:38;100914.78;;;21.71;94.44
43420;BME280;29017;51.514;-0.178;2022-08-19T05:40:08;100915.59;;;21.72;94.22
43420;BME280;29017;51.514;-0.178;2022-08-19T05:42:35;100924.66;;;21.71;94.19
43420;BME280;29017;51.514;-0.178;2022-08-19T05:45:03;100921.78;;;21.72;93.77
43420;BME280;29017;51.514;-0.178;2022-08-19T05:47:30;100925.28;;;21.73;93.88
43420;BME280;29017;51.514;-0.178;2022-08-19T05:49:59;100920.97;;;21.72;93.65
43420;BME280;29017;51.514;-0.178;2022-08-19T05:52:30;100921.84;;;21.66;92.08
43420;BME280;29017;51.514;-0.178;2022-08-19T05:54:57;100933.38;;;21.66;91.78
43420;BME280;29017;51.514;-0.178;2022-08-19T05:57:24;100921.63;;;21.67;91.95
43420;BME280;29017;51.514;-0.178;2022-08-19T05:59:51;100920.59;;;21.68;91.83
43420;BME280;29017;51.514;-0.178;2022-08-19T06:02:28;100920.34;;;21.70;90.90
43420;BME280;29017;51.514;-0.178;2022-08-19T06:04:57;100926.75;;;21.69;90.48
43420;BME280;29017;51.514;-0.178;2022-08-19T06:07:24;100925.97;;;21.68;89.87
43420;BME280;29017;51.514;-0.178;2022-08-19T06:09:51;100923.84;;;21.70;88.85
43420;BME280;29017;51.514;-0.178;2022-08-19T06:12:32;100938.88;;;21.71;87.04
43420;BME280;29017;51.514;-0.178;2022-08-19T06:15:10;100930.03;;;21.71;86.58
43420;BME280;29017;51.514;-0.178;2022-08-19T06:17:37;100935.38;;;21.71;85.63
43420;BME280;29017;51.514;-0.178;2022-08-19T06:20:06;100944.25;;;21.71;85.20
43420;BME280;29017;51.514;-0.178;2022-08-19T06:22:45;100938.69;;;21.73;84.04
43420;BME280;29017;51.514;-0.178;2022-08-19T06:25:13;100933.69;;;21.76;84.17
43420;BME280;29017;51.514;-0.178;2022-08-19T06:27:41;100939.66;;;21.79;83.05
43420;BME280;29017;51.514;-0.178;2022-08-19T06:30:28;100937.34;;;21.82;83.00
43420;BME280;29017;51.514;-0.178;2022-08-19T06:32:55;100933.63;;;21.83;82.99
43420;BME280;29017;51.514;-0.178;2022-08-19T06:35:22;100933.00;;;21.81;82.07
43420;BME280;29017;51.514;-0.178;2022-08-19T06:37:49;100936.50;;;21.82;81.98
43420;BME280;29017;51.514;-0.178;2022-08-19T06:40:16;100938.16;;;21.83;81.65
43420;BME280;29017;51.514;-0.178;2022-08-19T06:42:42;100950.94;;;21.81;80.80
43420;BME280;29017;51.514;-0.178;2022-08-19T06:45:21;100950.94;;;21.81;79.34
43420;BME280;29017;51.514;-0.178;2022-08-19T06:47:51;100956.09;;;21.82;78.87
43420;BME280;29017;51.514;-0.178;2022-08-19T06:50:20;100947.22;;;21.82;77.96
43420;BME280;29017;51.514;-0.178;2022-08-19T06:52:50;100952.38;;;21.83;77.33
43420;BME280;29017;51.514;-0.178;2022-08-19T06:55:18;100959.81;;;21.81;77.71
43420;BME280;29017;51.514;-0.178;2022-08-19T06:57:45;100953.63;;;21.81;77.46
43420;BME280;29017;51.514;-0.178;2022-08-19T07:00:13;100964.69;;;21.84;77.74
43420;BME280;29017;51.514;-0.178;2022-08-19T07:02:41;100966.34;;;21.85;77.41
43420;BME280;29017;51.514;-0.178;2022-08-19T07:05:21;100958.09;;;21.87;77.60
43420;BME280;29017;51.514;-0.178;2022-08-19T07:07:48;100970.00;;;21.91;78.04
43420;BME280;29017;51.514;-0.178;2022-08-19T07:10:16;100965.03;;;21.94;77.79
43420;BME280;29017;51.514;-0.178;2022-08-19T07:12:43;100974.50;;;21.97;77.46
43420;BME280;29017;51.514;-0.178;2022-08-19T07:15:11;100965.19;;;21.99;77.68
43420;BME280;29017;51.514;-0.178;2022-08-19T07:17:39;100975.31;;;21.97;77.16
43420;BME280;29017;51.514;-0.178;2022-08-19T07:20:08;100973.28;;;21.93;77.21
43420;BME280;29017;51.514;-0.178;2022-08-19T07:22:37;100974.72;;;21.95;79.08
43420;BME280;29017;51.514;-0.178;2022-08-19T07:25:06;100976.97;;;21.98;78.94
43420;BME280;29017;51.514;-0.178;2022-08-19T07:27:33;100982.09;;;22.00;78.00
43420;BME280;29017;51.514;-0.178;2022-08-19T07:30:01;100973.00;;;22.01;78.31
43420;BME280;29017;51.514;-0.178;2022-08-19T07:32:28;100973.81;;;22.01;78.22
43420;BME280;29017;51.514;-0.178;2022-08-19T07:34:55;100972.78;;;22.02;78.50
43420;BME280;29017;51.514;-0.178;2022-08-19T07:37:23;100977.94;;;22.04;78.12
43420;BME280;29017;51.514;-0.178;2022-08-19T07:39:58;100973.59;;;22.03;77.49
43420;BME280;29017;51.514;-0.178;2022-08-19T07:42:25;100982.47;;;22.03;77.02
43420;BME280;29017;51.514;-0.178;2022-08-19T07:44:53;100968.81;;;22.05;76.84
43420;BME280;29017;51.514;-0.178;2022-08-19T07:47:20;100977.47;;;22.07;76.80
43420;BME280;29017;51.514;-0.178;2022-08-19T07:50:10;100973.06;;;22.12;77.00
43420;BME280;29017;51.514;-0.178;2022-08-19T07:52:38;100971.78;;;22.15;76.62
43420;BME280;29017;51.514;-0.178;2022-08-19T07:55:07;100984.75;;;22.18;76.09
43420;BME280;29017;51.514;-0.178;2022-08-19T07:57:55;100979.97;;;22.20;75.89
43420;BME280;29017;51.514;-0.178;2022-08-19T08:00:22;100976.25;;;22.21;75.29
43420;BME280;29017;51.514;-0.178;2022-08-19T08:02:50;100978.50;;;22.24;75.38
43420;BME280;29017;51.514;-0.178;2022-08-19T08:05:21;100984.44;;;22.26;74.77
43420;BME280;29017;51.514;-0.178;2022-08-19T08:08:10;100979.69;;;22.28;74.15
43420;BME280;29017;51.514;-0.178;2022-08-19T08:10:55;100975.50;;;22.32;74.38
43420;BME280;29017;51.514;-0.178;2022-08-19T08:13:23;100986.22;;;22.32;73.85
43420;BME280;29017;51.514;-0.178;2022-08-19T08:15:52;100991.38;;;22.34;72.97
43420;BME280;29017;51.514;-0.178;2022-08-19T08:18:25;100993.81;;;22.35;74.41
43420;BME280;29017;51.514;-0.178;2022-08-19T08:20:56;100994.41;;;22.37;74.62
43420;BME280;29017;51.514;-0.178;2022-08-19T08:23:24;100998.97;;;22.37;69.94
43420;BME280;29017;51.514;-0.178;2022-08-19T08:25:57;101007.00;;;22.37;70.03
43420;BME280;29017;51.514;-0.178;2022-08-19T08:28:25;100995.03;;;22.39;71.76
43420;BME280;29017;51.514;-0.178;2022-08-19T08:30:55;100998.53;;;22.40;69.74
43420;BME280;29017;51.514;-0.178;2022-08-19T08:33:25;101002.00;;;22.40;68.28
43420;BME280;29017;51.514;-0.178;2022-08-19T08:36:09;101004.47;;;22.42;69.09
43420;BME280;29017;51.514;-0.178;2022-08-19T08:38:37;101004.53;;;22.35;67.24
43420;BME280;29017;51.514;-0.178;2022-08-19T08:41:37;100999.50;;;22.27;65.40
43420;BME280;29017;51.514;-0.178;2022-08-19T08:44:28;100991.47;;;22.27;67.38
43420;BME280;29017;51.514;-0.178;2022-08-19T08:47:01;101006.94;;;22.25;66.52
43420;BME280;29017;51.514;-0.178;2022-08-19T08:49:52;101009.88;;;22.24;66.85
43420;BME280;29017;51.514;-0.178;2022-08-19T08:52:26;101002.66;;;22.24;67.38
43420;BME280;29017;51.514;-0.178;2022-08-19T08:55:00;101006.94;;;22.25;65.17
43420;BME280;29017;51.514;-0.178;2022-08-19T08:57:49;101012.44;;;22.30;65.12
43420;BME280;29017;51.514;-0.178;2022-08-19T09:00:37;101000.25;;;22.34;65.15
43420;BME280;29017;51.514;-0.178;2022-08-19T09:03:18;101003.06;;;22.39;64.32
43420;BME280;29017;51.514;-0.178;2022-08-19T09:06:02;101005.63;;;22.46;63.39
43420;BME280;29017;51.514;-0.178;2022-08-19T09:08:43;101000.41;;;22.51;62.86
43420;BME280;29017;51.514;-0.178;2022-08-19T09:14:35;100996.47;;;22.53;64.09
43420;BME280;29017;51.514;-0.178;2022-08-19T09:17:22;100996.63;;;22.58;64.65
43420;BME280;29017;51.514;-0.178;2022-08-19T09:20:02;100993.47;;;22.61;63.66
43420;BME280;29017;51.514;-0.178;2022-08-19T09:22:38;100985.81;;;22.65;64.54
43420;BME280;29017;51.514;-0.178;2022-08-19T09:25:08;100984.69;;;22.73;63.21
43420;BME280;29017;51.514;-0.178;2022-08-19T09:27:37;100987.41;;;22.84;63.86
43420;BME280;29017;51.514;-0.178;2022-08-19T09:30:14;100988.09;;;22.91;63.52
43420;BME280;29017;51.514;-0.178;2022-08-19T09:32:42;100992.34;;;22.99;63.75
43420;BME280;29017;51.514;-0.178;2022-08-19T09:35:10;100980.31;;;23.01;63.75
43420;BME280;29017;51.514;-0.178;2022-08-19T09:37:37;100989.09;;;23.09;63.14
43420;BME280;29017;51.514;-0.178;2022-08-19T09:40:06;100984.53;;;23.09;63.19
43420;BME280;29017;51.514;-0.178;2022-08-19T09:42:34;100988.84;;;23.10;64.14
43420;BME280;29017;51.514;-0.178;2022-08-19T09:45:02;100982.41;;;23.11;64.73
43420;BME280;29017;51.514;-0.178;2022-08-19T09:47:36;100983.84;;;23.14;64.48
43420;BME280;29017;51.514;-0.178;2022-08-19T09:50:08;100989.19;;;23.14;63.24
43420;BME280;29017;51.514;-0.178;2022-08-19T09:52:36;100989.81;;;23.16;63.57
43420;BME280;29017;51.514;-0.178;2022-08-19T09:55:08;100981.28;;;23.19;64.57
43420;BME280;29017;51.514;-0.178;2022-08-19T09:57:35;100986.16;;;23.22;63.84
43420;BME280;29017;51.514;-0.178;2022-08-19T10:00:05;100998.56;;;23.23;62.29
43420;BME280;29017;51.514;-0.178;2022-08-19T10:02:32;100988.03;;;23.21;61.22
43420;BME280;29017;51.514;-0.178;2022-08-19T10:05:00;100988.84;;;23.22;61.54
43420;BME280;29017;51.514;-0.178;2022-08-19T10:07:52;100991.41;;;23.17;61.71
43420;BME280;29017;51.514;-0.178;2022-08-19T10:10:22;101004.16;;;23.10;62.18
43420;BME280;29017;51.514;-0.178;2022-08-19T10:12:49;101002.72;;;23.07;62.64
43420;BME280;29017;51.514;-0.178;2022-08-19T10:15:16;101000.03;;;23.07;63.07
43420;BME280;29017;51.514;-0.178;2022-08-19T10:17:55;101000.84;;;23.08;62.98
43420;BME280;29017;51.514;-0.178;2022-08-19T10:20:24;101002.38;;;23.03;63.27
43420;BME280;29017;51.514;-0.178;2022-08-19T10:22:51;101007.75;;;23.03;64.53
43420;BME280;29017;51.514;-0.178;2022-08-19T10:25:18;101004.03;;;23.05;63.32
43420;BME280;29017;51.514;-0.178;2022-08-19T10:27:45;101001.78;;;23.01;64.41
43420;BME280;29017;51.514;-0.178;2022-08-19T10:30:17;101008.56;;;23.04;64.62
43420;BME280;29017;51.514;-0.178;2022-08-19T10:32:45;101003.09;;;23.11;64.39
43420;BME280;29017;51.514;-0.178;2022-08-19T10:35:13;101000.16;;;23.12;63.42
43420;BME280;29017;51.514;-0.178;2022-08-19T10:37:47;100998.09;;;23.14;63.82
43420;BME280;29017;51.514;-0.178;2022-08-19T10:40:26;101000.28;;;23.17;63.89
43420;BME280;29017;51.514;-0.178;2022-08-19T10:42:54;101003.91;;;23.23;63.69
43420;BME280;29017;51.514;-0.178;2022-08-19T10:45:22;101003.59;;;23.31;65.13
43420;BME280;29017;51.514;-0.178;2022-08-19T10:47:53;100999.97;;;23.37;63.28
43420;BME280;29017;51.514;-0.178;2022-08-19T10:50:21;101001.97;;;23.41;61.37
43420;BME280;29017;51.514;-0.178;2022-08-19T10:53:08;101000.91;;;23.42;60.29
43420;BME280;29017;51.514;-0.178;2022-08-19T10:55:35;101002.34;;;23.45;60.52
43420;BME280;29017;51.514;-0.178;2022-08-19T10:58:21;101006.88;;;23.44;60.23
43420;BME280;29017;51.514;-0.178;2022-08-19T11:00:57;101017.44;;;23.46;59.95
43420;BME280;29017;51.514;-0.178;2022-08-19T11:03:25;101014.84;;;23.51;60.62
43420;BME280;29017;51.514;-0.178;2022-08-19T11:06:03;101019.53;;;23.56;57.97
43420;BME280;29017;51.514;-0.178;2022-08-19T11:08:32;101014.16;;;23.56;58.51
43420;BME280;29017;51.514;-0.178;2022-08-19T11:11:01;101019.28;;;23.57;58.06
43420;BME280;29017;51.514;-0.178;2022-08-19T11:13:39;101014.50;;;23.59;55.60
43420;BME280;29017;51.514;-0.178;2022-08-19T11:16:15;101023.72;;;23.63;55.95
43420;BME280;29017;51.514;-0.178;2022-08-19T11:18:45;101023.50;;;23.65;56.04
43420;BME280;29017;51.514;-0.178;2022-08-19T11:21:14;101023.00;;;23.68;56.43
43420;BME280;29017;51.514;-0.178;2022-08-19T11:23:43;101014.72;;;23.69;54.99
43420;BME280;29017;51.514;-0.178;2022-08-19T11:26:12;101022.91;;;23.74;55.79
43420;BME280;29017;51.514;-0.178;2022-08-19T11:28:40;101012.16;;;23.74;56.40
43420;BME280;29017;51.514;-0.178;2022-08-19T11:31:13;101016.25;;;23.77;55.75
43420;BME280;29017;51.514;-0.178;2022-08-19T11:33:43;101019.28;;;23.80;55.45
43420;BME280;29017;51.514;-0.178;2022-08-19T11:36:13;101019.06;;;23.82;54.35
43420;BME280;29017;51.514;-0.178;2022-08-19T11:38:41;101019.63;;;23.84;54.52
43420;BME280;29017;51.514;-0.178;2022-08-19T11:41:08;101022.09;;;23.85;51.94
43420;BME280;29017;51.514;-0.178;2022-08-19T11:43:42;101025.00;;;23.84;52.55
43420;BME280;29017;51.514;-0.178;2022-08-19T11:46:12;101018.34;;;23.86;53.41
43420;BME280;29017;51.514;-0.178;2022-08-19T11:48:42;101025.94;;;23.90;51.22
43420;BME280;29017;51.514;-0.178;2022-08-19T11:51:17;101026.75;;;23.90;50.85
43420;BME280;29017;51.514;-0.178;2022-08-19T11:53:45;101018.78;;;23.95;51.66
43420;BME280;29017;51.514;-0.178;2022-08-19T11:56:12;101022.41;;;24.01;51.96
43420;BME280;29017;51.514;-0.178;2022-08-19T11:58:40;101017.47;;;24.09;51.94
43420;BME280;29017;51.514;-0.178;2022-08-19T12:01:15;101030.22;;;24.14;50.08
43420;BME280;29017;51.514;-0.178;2022-08-19T12:03:43;101024.41;;;24.17;49.85
43420;BME280;29017;51.514;-0.178;2022-08-19T12:06:14;101020.50;;;24.13;49.26
43420;BME280;29017;51.514;-0.178;2022-08-19T12:08:42;101023.69;;;24.10;49.26
43420;BME280;29017;51.514;-0.178;2022-08-19T12:11:11;101024.97;;;24.07;49.16
43420;BME280;29017;51.514;-0.178;2022-08-19T12:13:43;101032.22;;;24.07;49.29
43420;BME280;29017;51.514;-0.178;2022-08-19T12:16:18;101023.22;;;24.01;48.20
43420;BME280;29017;51.514;-0.178;2022-08-19T12:18:45;101024.06;;;24.02;47.21
43420;BME280;29017;51.514;-0.178;2022-08-19T12:21:14;101023.47;;;24.00;47.71
43420;BME280;29017;51.514;-0.178;2022-08-19T12:23:43;101023.34;;;23.95;47.65
43420;BME280;29017;51.514;-0.178;2022-08-19T12:26:21;101028.84;;;23.88;48.02
43420;BME280;29017;51.514;-0.178;2022-08-19T12:28:48;101023.25;;;23.90;48.00
43420;BME280;29017;51.514;-0.178;2022-08-19T12:31:15;101034.34;;;23.93;48.54
43420;BME280;29017;51.514;-0.178;2022-08-19T12:33:47;101032.47;;;23.94;48.15
43420;BME280;29017;51.514;-0.178;2022-08-19T12:36:15;101030.38;;;23.96;48.44
43420;BME280;29017;51.514;-0.178;2022-08-19T12:38:44;101031.19;;;23.96;48.76
43420;BME280;29017;51.514;-0.178;2022-08-19T12:41:14;101025.81;;;23.96;49.54
43420;BME280;29017;51.514;-0.178;2022-08-19T12:43:44;101019.38;;;23.97;49.59
43420;BME280;29017;51.514;-0.178;2022-08-19T12:46:18;101023.13;;;23.96;46.17
43420;BME280;29017;51.514;-0.178;2022-08-19T12:48:48;101027.19;;;23.99;48.25
43420;BME280;29017;51.514;-0.178;2022-08-19T12:51:20;101017.38;;;24.04;48.63
43420;BME280;29017;51.514;-0.178;2022-08-19T12:53:49;101019.44;;;24.14;46.16
43420;BME280;29017;51.514;-0.178;2022-08-19T12:56:16;101018.31;;;24.21;46.58
43420;BME280;29017;51.514;-0.178;2022-08-19T12:58:48;101024.63;;;24.27;46.92
43420;BME280;29017;51.514;-0.178;2022-08-19T13:01:18;101028.69;;;24.29;46.38
43420;BME280;29017;51.514;-0.178;2022-08-19T13:03:49;101028.13;;;24.27;45.21
43420;BME280;29017;51.514;-0.178;2022-08-19T13:06:17;101024.50;;;24.22;45.57
43420;BME280;29017;51.514;-0.178;2022-08-19T13:08:46;101025.34;;;24.22;43.59
43420;BME280;29017;51.514;-0.178;2022-08-19T13:11:18;101013.59;;;24.28;43.50